Time;durP1;ratioP1;P1;durP2;ratioP2;P2;SDS_P1;SDS_P2;PMS_P1;PMS_P2;Temp;Humidity;BMP_temperature;BMP_pressure;BME280_temperature;BME280_humidity;BME280_pressure;Samples;Min_cycle;Max_cycle;Signal;HPM_P1;HPM_P2
2023/04/01 00:02:36;;;;;;;;;;;11.50;79.00;;;;;;9184108;19;19918;-67
2023/04/01 00:05:42;;;;;;;;;;;11.50;79.00;;;;;;9178982;19;19923;-66
2023/04/01 00:08:48;;;;;;;;;;;11.50;79.00;;;;;;9173755;19;20027;-67
2023/04/01 00:11:54;;;;;;;;;;;11.50;79.00;;;;;;9174339;19;19939;-67
2023/04/01 00:14:58;;;;;;;;;;;11.50;79.20;;;;;;9173590;19;19920;-67
2023/04/01 00:18:04;;;;;;;;;;;11.50;79.10;;;;;;9174706;19;19919;-67
2023/04/01 00:21:09;;;;;;;;;;;11.50;79.10;;;;;;9177038;19;20456;-67
2023/04/01 00:24:17;;;;;;;;;;;11.50;79.10;;;;;;9180854;19;19929;-67
2023/04/01 00:27:21;;;;;;;;;;;11.50;79.10;;;;;;9180380;19;19930;-67
2023/04/01 00:30:26;;;;;;;;;;;11.50;79.10;;;;;;9177861;19;19915;-67
2023/04/01 00:33:30;;;;;;;;;;;11.50;79.10;;;;;;9175467;19;20584;-67
2023/04/01 00:36:36;;;;;;;;;;;11.50;79.10;;;;;;9177832;19;19934;-67
2023/04/01 00:39:42;;;;;;;;;;;11.50;79.10;;;;;;9177283;19;20348;-68
2023/04/01 00:42:48;;;;;;;;;;;11.50;79.10;;;;;;9174039;19;19981;-67
2023/04/01 00:45:52;;;;;;;;;;;11.50;79.10;;;;;;9182672;19;19923;-67
2023/04/01 00:48:58;;;;;;;;;;;11.50;79.10;;;;;;9180588;19;19918;-67
2023/04/01 00:52:03;;;;;;;;;;;11.50;79.20;;;;;;9183030;19;20278;-67
2023/04/01 00:55:13;;;;;;;;;;;11.40;79.10;;;;;;9180977;19;19919;-67
2023/04/01 00:58:19;;;;;;;;;;;11.40;79.20;;;;;;9181199;19;19918;-67
2023/04/01 01:01:26;;;;;;;;;;;11.40;79.80;;;;;;9182179;19;19906;-66
2023/04/01 01:04:31;;;;;;;;;;;11.40;79.20;;;;;;9181121;19;19914;-66
2023/04/01 01:07:40;;;;;;;;;;;11.40;79.20;;;;;;9179011;19;19918;-67
2023/04/01 01:10:51;;;;;;;;;;;11.40;79.20;;;;;;9177470;19;19929;-66
2023/04/01 01:14:00;;;;;;;;;;;11.40;79.20;;;;;;9181987;19;19922;-67
2023/04/01 01:17:08;;;;;;;;;;;11.40;79.20;;;;;;9179671;19;19986;-67
2023/04/01 01:20:38;;;;;;;;;;;11.40;79.20;;;;;;9182066;19;19922;-67
2023/04/01 01:23:54;;;;;;;;;;;11.40;79.20;;;;;;9182011;19;19919;-67
2023/04/01 01:27:07;;;;;;;;;;;11.40;79.30;;;;;;9179117;19;19938;-67
2023/04/01 01:30:37;;;;;;;;;;;11.40;79.30;;;;;;9178138;19;19986;-67
2023/04/01 01:33:53;;;;;;;;;;;11.40;79.30;;;;;;9178420;19;19919;-67
2023/04/01 01:37:01;;;;;;;;;;;11.40;79.30;;;;;;9179663;19;19926;-67
2023/04/01 01:40:09;;;;;;;;;;;11.40;79.30;;;;;;9177917;19;20272;-67
2023/04/01 01:43:15;;;;;;;;;;;11.40;79.30;;;;;;9173035;19;19925;-67
2023/04/01 01:46:23;;;;;;;;;;;11.40;79.30;;;;;;9176663;19;19915;-67
2023/04/01 01:49:30;;;;;;;;;;;11.40;79.40;;;;;;9179553;19;19922;-67
2023/04/01 01:52:38;;;;;;;;;;;11.40;79.40;;;;;;9180511;19;20016;-67
2023/04/01 01:55:43;;;;;;;;;;;11.40;79.40;;;;;;9178864;19;19978;-67
2023/04/01 01:58:51;;;;;;;;;;;11.40;79.40;;;;;;9179782;19;19911;-67
2023/04/01 02:01:58;;;;;;;;;;;11.40;79.40;;;;;;9179390;19;19926;-67
2023/04/01 02:05:07;;;;;;;;;;;11.40;79.40;;;;;;9178497;19;19918;-67
2023/04/01 02:08:15;;;;;;;;;;;11.40;79.40;;;;;;9177906;19;19922;-67
2023/04/01 02:11:25;;;;;;;;;;;11.40;79.50;;;;;;9176727;19;19915;-67
2023/04/01 02:14:32;;;;;;;;;;;11.40;79.50;;;;;;9180286;19;19926;-67
2023/04/01 02:17:39;;;;;;;;;;;11.40;79.50;;;;;;9180025;19;19919;-68
2023/04/01 02:20:44;;;;;;;;;;;11.40;79.50;;;;;;9177878;19;19990;-67
2023/04/01 02:23:54;;;;;;;;;;;11.40;79.50;;;;;;9178028;19;19922;-67
2023/04/01 02:27:00;;;;;;;;;;;11.40;79.50;;;;;;9175606;19;20265;-67
2023/04/01 02:30:08;;;;;;;;;;;11.40;79.50;;;;;;9175869;19;20475;-68
2023/04/01 02:33:12;;;;;;;;;;;11.40;79.50;;;;;;9178777;19;19928;-67
2023/04/01 02:36:19;;;;;;;;;;;11.40;79.50;;;;;;9179837;19;20256;-67
2023/04/01 02:39:25;;;;;;;;;;;11.40;79.50;;;;;;9179845;19;20273;-67
2023/04/01 02:42:31;;;;;;;;;;;11.40;79.50;;;;;;9179585;19;20306;-68
2023/04/01 02:45:34;;;;;;;;;;;11.50;79.60;;;;;;9173165;19;19927;-68
2023/04/01 02:48:41;;;;;;;;;;;11.40;79.50;;;;;;9177198;19;20355;-67
2023/04/01 02:51:45;;;;;;;;;;;11.40;79.50;;;;;;9177509;19;20261;-68
2023/04/01 02:54:53;;;;;;;;;;;11.50;79.60;;;;;;9179374;19;19926;-68
2023/04/01 02:57:57;;;;;;;;;;;11.50;79.60;;;;;;9176629;19;19986;-67
2023/04/01 03:01:03;;;;;;;;;;;11.50;79.60;;;;;;9177097;19;19923;-67
2023/04/01 03:04:07;;;;;;;;;;;11.50;79.60;;;;;;9177766;19;19922;-68
2023/04/01 03:07:13;;;;;;;;;;;11.50;79.60;;;;;;9177795;19;19929;-68
2023/04/01 03:10:19;;;;;;;;;;;11.50;79.60;;;;;;9173024;19;19915;-67
2023/04/01 03:13:25;;;;;;;;;;;11.50;79.60;;;;;;9177889;19;19918;-68
2023/04/01 03:16:29;;;;;;;;;;;11.50;79.70;;;;;;9176722;19;19918;-68
2023/04/01 03:19:35;;;;;;;;;;;11.50;79.60;;;;;;9176268;19;19914;-67
2023/04/01 03:22:45;;;;;;;;;;;11.50;79.60;;;;;;9172601;19;19923;-67
2023/04/01 03:25:53;;;;;;;;;;;11.50;79.60;;;;;;9177617;19;19918;-67
2023/04/01 03:28:57;;;;;;;;;;;11.50;79.60;;;;;;9175701;19;19925;-67
2023/04/01 03:32:03;;;;;;;;;;;11.50;79.70;;;;;;9181971;19;19922;-67
2023/04/01 03:35:09;;;;;;;;;;;11.50;79.60;;;;;;9183424;19;20281;-67
2023/04/01 03:38:15;;;;;;;;;;;11.60;79.70;;;;;;9183747;19;19915;-67
2023/04/01 03:41:21;;;;;;;;;;;11.60;79.70;;;;;;9182275;19;19960;-67
2023/04/01 03:44:28;;;;;;;;;;;11.50;79.70;;;;;;9176338;19;19919;-67
2023/04/01 03:47:32;;;;;;;;;;;11.50;79.70;;;;;;9182006;19;19918;-68
2023/04/01 03:50:39;;;;;;;;;;;11.50;79.70;;;;;;9180723;19;19919;-68
2023/04/01 03:53:43;;;;;;;;;;;11.60;79.70;;;;;;9184801;19;19971;-68
2023/04/01 03:56:51;;;;;;;;;;;11.60;79.70;;;;;;9185074;19;20351;-67
2023/04/01 03:59:55;;;;;;;;;;;11.60;79.70;;;;;;9185817;19;19923;-67
2023/04/01 04:03:01;;;;;;;;;;;11.60;79.80;;;;;;9184962;19;19926;-67
2023/04/01 04:06:12;;;;;;;;;;;11.60;79.80;;;;;;9182703;19;19960;-67
2023/04/01 04:09:18;;;;;;;;;;;11.60;79.80;;;;;;9181973;19;20277;-67
2023/04/01 04:12:23;;;;;;;;;;;11.60;79.80;;;;;;9182710;19;19930;-67
2023/04/01 04:15:30;;;;;;;;;;;11.60;79.80;;;;;;9183059;19;19921;-67
2023/04/01 04:18:34;;;;;;;;;;;11.60;79.80;;;;;;9180020;19;19930;-67
2023/04/01 04:21:41;;;;;;;;;;;11.60;79.80;;;;;;9184199;19;19922;-67
2023/04/01 04:24:45;;;;;;;;;;;11.60;79.80;;;;;;9183781;19;19923;-67
2023/04/01 04:27:54;;;;;;;;;;;11.60;79.80;;;;;;9182002;19;20464;-67
2023/04/01 04:30:58;;;;;;;;;;;11.60;79.80;;;;;;9180700;19;19952;-68
2023/04/01 04:34:04;;;;;;;;;;;11.60;79.80;;;;;;9181740;19;20285;-67
2023/04/01 04:37:12;;;;;;;;;;;11.60;79.80;;;;;;9181418;19;19919;-68
2023/04/01 04:40:18;;;;;;;;;;;11.60;79.80;;;;;;9182022;19;19917;-68
2023/04/01 04:43:24;;;;;;;;;;;11.60;79.90;;;;;;9174350;19;20276;-68
2023/04/01 04:46:30;;;;;;;;;;;11.60;79.90;;;;;;9182188;19;20424;-68
2023/04/01 04:49:42;;;;;;;;;;;11.60;79.80;;;;;;9181071;19;19918;-68
2023/04/01 04:52:48;;;;;;;;;;;11.60;79.90;;;;;;9181691;19;19933;-68
2023/04/01 04:55:52;;;;;;;;;;;11.60;79.90;;;;;;9182164;19;20325;-68
2023/04/01 04:59:15;;;;;;;;;;;11.60;79.90;;;;;;9180784;19;20360;-68
2023/04/01 05:02:25;;;;;;;;;;;11.60;79.90;;;;;;9180968;19;19918;-68
2023/04/01 05:05:31;;;;;;;;;;;11.60;79.90;;;;;;9179075;19;20256;-68
2023/04/01 05:08:36;;;;;;;;;;;11.60;79.90;;;;;;9178763;19;20007;-68
2023/04/01 05:11:41;;;;;;;;;;;11.60;80.00;;;;;;9178334;19;19911;-68
2023/04/01 05:14:48;;;;;;;;;;;11.60;80.00;;;;;;9174543;19;19921;-68
2023/04/01 05:17:54;;;;;;;;;;;11.60;79.90;;;;;;9172024;19;19915;-68
2023/04/01 05:20:58;;;;;;;;;;;11.60;79.90;;;;;;9172100;19;19940;-68
2023/04/01 05:24:04;;;;;;;;;;;11.60;79.90;;;;;;9171346;19;19943;-68
2023/04/01 05:27:08;;;;;;;;;;;11.60;79.90;;;;;;9172822;19;19930;-68
2023/04/01 05:30:20;;;;;;;;;;;11.60;80.00;;;;;;9170236;19;19918;-68
2023/04/01 05:33:38;;;;;;;;;;;11.60;79.90;;;;;;9167618;19;20329;-68
2023/04/01 05:36:44;;;;;;;;;;;11.60;79.90;;;;;;9175471;19;19933;-68
2023/04/01 05:39:48;;;;;;;;;;;11.60;80.00;;;;;;9180054;19;19925;-68
2023/04/01 05:42:54;;;;;;;;;;;11.70;80.00;;;;;;9174403;19;19961;-68
2023/04/01 05:46:00;;;;;;;;;;;11.60;80.00;;;;;;9179513;19;19922;-68
2023/04/01 05:49:14;;;;;;;;;;;11.60;80.00;;;;;;9179011;19;19950;-68
2023/04/01 05:52:18;;;;;;;;;;;11.70;80.10;;;;;;9179786;19;19948;-68
2023/04/01 05:55:24;;;;;;;;;;;11.60;80.00;;;;;;9178541;19;20556;-68
2023/04/01 05:58:28;;;;;;;;;;;11.60;80.00;;;;;;9179397;19;19915;-68
2023/04/01 06:01:36;;;;;;;;;;;11.60;80.00;;;;;;9179393;19;19922;-68
2023/04/01 06:04:41;;;;;;;;;;;11.70;80.10;;;;;;9180033;19;19923;-68
2023/04/01 06:07:48;;;;;;;;;;;11.60;80.00;;;;;;9178000;19;19922;-68
2023/04/01 06:10:59;;;;;;;;;;;11.70;80.20;;;;;;9176857;19;19915;-68
2023/04/01 06:14:12;;;;;;;;;;;11.70;80.20;;;;;;9177905;19;19911;-68
2023/04/01 06:17:28;;;;;;;;;;;11.70;80.20;;;;;;9178708;19;19938;-68
2023/04/01 06:20:38;;;;;;;;;;;11.70;80.20;;;;;;9179977;19;19915;-68
2023/04/01 06:23:54;;;;;;;;;;;11.70;80.20;;;;;;9178081;19;19914;-68
2023/04/01 06:27:05;;;;;;;;;;;11.70;80.20;;;;;;9180169;19;19922;-68
2023/04/01 06:30:18;;;;;;;;;;;11.70;80.20;;;;;;9177135;19;19926;-68
2023/04/01 06:33:42;;;;;;;;;;;11.70;80.20;;;;;;9178046;19;19918;-68
2023/04/01 06:37:13;;;;;;;;;;;11.70;80.20;;;;;;9177987;19;19938;-68
2023/04/01 06:40:24;;;;;;;;;;;11.70;80.20;;;;;;9176786;19;19911;-68
2023/04/01 06:43:36;;;;;;;;;;;11.70;80.20;;;;;;9173003;19;19925;-68
2023/04/01 06:46:59;;;;;;;;;;;11.80;80.30;;;;;;9177806;19;19918;-67
2023/04/01 06:50:26;;;;;;;;;;;11.80;80.30;;;;;;9177919;19;20635;-68
2023/04/01 06:53:46;;;;;;;;;;;11.80;80.30;;;;;;9178866;19;20479;-68
2023/04/01 06:57:20;;;;;;;;;;;11.80;80.30;;;;;;9175584;19;19912;-68
2023/04/01 07:00:29;;;;;;;;;;;11.80;80.30;;;;;;9178372;19;19915;-68
2023/04/01 07:03:35;;;;;;;;;;;11.80;80.30;;;;;;9177248;19;19919;-68
2023/04/01 07:06:49;;;;;;;;;;;11.80;80.30;;;;;;9178486;19;19926;-67
2023/04/01 07:09:54;;;;;;;;;;;11.90;80.40;;;;;;9183955;19;19919;-68
2023/04/01 07:13:14;;;;;;;;;;;11.90;80.30;;;;;;9185840;19;19918;-68
2023/04/01 07:16:30;;;;;;;;;;;11.90;80.30;;;;;;9184672;19;19931;-68
2023/04/01 07:19:40;;;;;;;;;;;11.90;80.40;;;;;;9185739;19;19930;-68
2023/04/01 07:22:47;;;;;;;;;;;12.00;80.40;;;;;;9186530;19;19915;-68
2023/04/01 07:26:15;;;;;;;;;;;12.00;80.40;;;;;;9185888;19;19939;-68
2023/04/01 07:29:35;;;;;;;;;;;12.00;80.40;;;;;;9186224;19;20383;-67
2023/04/01 07:32:42;;;;;;;;;;;12.00;80.40;;;;;;9185681;19;19918;-68
2023/04/01 07:35:50;;;;;;;;;;;12.00;80.40;;;;;;9182886;19;19986;-67
2023/04/01 07:39:01;;;;;;;;;;;12.00;81.00;;;;;;9184946;19;19918;-67
2023/04/01 07:42:28;;;;;;;;;;;12.00;80.40;;;;;;9182701;19;19930;-67
2023/04/01 07:45:38;;;;;;;;;;;12.10;80.50;;;;;;9178413;19;20276;-67
2023/04/01 07:48:48;;;;;;;;;;;12.10;80.50;;;;;;9183702;19;20326;-68
2023/04/01 07:51:58;;;;;;;;;;;12.10;80.50;;;;;;9181042;19;19919;-67
2023/04/01 07:55:09;;;;;;;;;;;12.20;80.60;;;;;;9183305;19;19925;-68
2023/04/01 07:58:21;;;;;;;;;;;12.20;80.50;;;;;;9183992;19;19915;-68
2023/04/01 08:01:29;;;;;;;;;;;12.20;80.60;;;;;;9182324;19;19931;-68
2023/04/01 08:04:43;;;;;;;;;;;12.30;80.60;;;;;;9179827;19;19923;-68
2023/04/01 08:07:51;;;;;;;;;;;12.30;80.60;;;;;;9181321;19;19974;-68
2023/04/01 08:11:23;;;;;;;;;;;12.30;80.50;;;;;;9182565;19;19933;-68
2023/04/01 08:14:50;;;;;;;;;;;12.30;80.50;;;;;;9183981;19;19915;-67
2023/04/01 08:18:19;;;;;;;;;;;12.40;80.50;;;;;;9178912;19;19919;-68
2023/04/01 08:21:25;;;;;;;;;;;12.40;80.50;;;;;;9181508;19;19925;-68
2023/04/01 08:24:36;;;;;;;;;;;12.40;80.60;;;;;;9182064;19;19922;-67
2023/04/01 08:27:57;;;;;;;;;;;12.50;80.60;;;;;;9180145;19;19945;-68
2023/04/01 08:31:06;;;;;;;;;;;12.50;81.20;;;;;;9175429;19;19918;-67
2023/04/01 08:34:14;;;;;;;;;;;12.50;80.50;;;;;;9176396;19;20040;-67
2023/04/01 08:37:22;;;;;;;;;;;12.60;80.60;;;;;;9180216;19;19926;-69
2023/04/01 08:40:54;;;;;;;;;;;12.60;80.60;;;;;;9180933;19;20346;-69
2023/04/01 08:44:20;;;;;;;;;;;12.60;80.60;;;;;;9177389;19;19915;-70
2023/04/01 08:47:36;;;;;;;;;;;12.60;80.60;;;;;;9181348;19;20355;-69
2023/04/01 08:50:57;;;;;;;;;;;12.60;80.50;;;;;;9181725;19;19919;-69
2023/04/01 08:54:25;;;;;;;;;;;12.60;80.50;;;;;;9181451;19;20353;-70
2023/04/01 08:57:39;;;;;;;;;;;12.70;80.60;;;;;;9179029;19;19907;-69
2023/04/01 09:01:16;;;;;;;;;;;12.70;80.60;;;;;;9181213;19;19922;-69
2023/04/01 09:04:34;;;;;;;;;;;12.70;80.60;;;;;;9180474;19;19930;-69
2023/04/01 09:07:41;;;;;;;;;;;12.70;80.60;;;;;;9180465;19;19919;-70
2023/04/01 09:10:57;;;;;;;;;;;12.70;80.60;;;;;;9178842;19;19926;-69
2023/04/01 09:14:36;;;;;;;;;;;12.70;80.60;;;;;;9182052;19;19944;-68
2023/04/01 09:18:13;;;;;;;;;;;12.80;80.70;;;;;;9180429;19;19918;-69
2023/04/01 09:21:40;;;;;;;;;;;12.80;80.70;;;;;;9180558;19;19918;-68
2023/04/01 09:25:03;;;;;;;;;;;12.80;80.70;;;;;;9179894;19;19923;-69
2023/04/01 09:28:12;;;;;;;;;;;12.80;80.70;;;;;;9179314;19;19922;-68
2023/04/01 09:31:34;;;;;;;;;;;12.90;80.80;;;;;;9178006;19;19925;-69
2023/04/01 09:35:08;;;;;;;;;;;12.90;80.80;;;;;;9179956;19;19921;-69
2023/04/01 09:38:22;;;;;;;;;;;13.00;80.90;;;;;;9182315;19;20325;-69
2023/04/01 09:41:30;;;;;;;;;;;13.00;80.80;;;;;;9180481;19;19919;-69
2023/04/01 09:44:59;;;;;;;;;;;13.10;80.90;;;;;;9176160;19;20341;-69
2023/04/01 09:48:07;;;;;;;;;;;13.10;80.80;;;;;;9179490;19;19919;-69
2023/04/01 09:51:25;;;;;;;;;;;13.10;80.80;;;;;;9180233;19;20257;-69
2023/04/01 09:54:38;;;;;;;;;;;13.20;80.80;;;;;;9179012;19;19982;-68
2023/04/01 09:58:05;;;;;;;;;;;13.20;80.80;;;;;;9178745;19;19930;-68
2023/04/01 10:01:53;;;;;;;;;;;13.30;80.80;;;;;;9177473;19;19949;-70
2023/04/01 10:05:21;;;;;;;;;;;13.30;80.80;;;;;;9178741;19;19919;-69
2023/04/01 10:08:40;;;;;;;;;;;13.40;80.90;;;;;;9177551;19;20349;-69
2023/04/01 10:11:59;;;;;;;;;;;13.40;80.80;;;;;;9177032;19;19926;-69
2023/04/01 10:15:29;;;;;;;;;;;13.40;80.90;;;;;;9179357;19;19919;-69
2023/04/01 10:18:57;;;;;;;;;;;13.50;80.90;;;;;;9179081;19;19915;-68
2023/04/01 10:22:15;;;;;;;;;;;13.50;81.00;;;;;;9178077;19;19926;-68
2023/04/01 10:25:32;;;;;;;;;;;13.60;80.90;;;;;;9180119;19;19927;-69
2023/04/01 10:29:02;;;;;;;;;;;13.60;80.90;;;;;;9177785;19;19914;-69
2023/04/01 10:32:53;;;;;;;;;;;13.70;81.00;;;;;;9177617;19;19915;-68
2023/04/01 10:36:11;;;;;;;;;;;13.80;81.00;;;;;;9178891;19;19919;-68
2023/04/01 10:39:35;;;;;;;;;;;13.90;81.10;;;;;;9177238;19;20669;-69
2023/04/01 10:43:10;;;;;;;;;;;14.00;81.00;;;;;;9170360;19;19927;-69
2023/04/01 10:46:35;;;;;;;;;;;14.00;80.90;;;;;;9177977;19;19929;-69
2023/04/01 10:49:48;;;;;;;;;;;14.10;80.90;;;;;;9177833;19;20363;-69
2023/04/01 10:53:13;;;;;;;;;;;14.20;81.00;;;;;;9172842;19;19926;-70
2023/04/01 10:56:46;;;;;;;;;;;14.20;80.90;;;;;;9176650;19;19935;-69
2023/04/01 11:00:38;;;;;;;;;;;14.30;80.90;;;;;;9180181;19;19926;-69
2023/04/01 11:04:17;;;;;;;;;;;14.40;80.90;;;;;;9181126;19;19926;-69
2023/04/01 11:08:04;;;;;;;;;;;14.50;80.90;;;;;;9168409;19;19930;-70
2023/04/01 11:11:29;;;;;;;;;;;14.50;80.90;;;;;;9166993;19;19922;-70
2023/04/01 11:14:55;;;;;;;;;;;14.60;80.90;;;;;;9170535;19;19914;-70
2023/04/01 11:18:14;;;;;;;;;;;14.60;80.80;;;;;;9170074;19;20625;-70
2023/04/01 11:21:35;;;;;;;;;;;14.60;80.70;;;;;;9174741;19;19919;-70
2023/04/01 11:24:54;;;;;;;;;;;14.70;80.70;;;;;;9175609;19;19929;-70
2023/04/01 11:28:28;;;;;;;;;;;14.60;80.60;;;;;;9175405;19;19911;-70
2023/04/01 11:31:46;;;;;;;;;;;14.60;80.60;;;;;;9174343;19;19950;-70
2023/04/01 11:35:01;;;;;;;;;;;14.60;80.70;;;;;;9176890;19;19915;-70
2023/04/01 11:38:09;;;;;;;;;;;14.60;80.70;;;;;;9174978;19;19922;-70
2023/04/01 11:41:29;;;;;;;;;;;14.60;80.70;;;;;;9176839;19;20685;-71
2023/04/01 11:45:02;;;;;;;;;;;14.60;80.70;;;;;;9167819;19;20402;-70
2023/04/01 11:48:29;;;;;;;;;;;14.60;80.80;;;;;;9172116;19;20273;-71
2023/04/01 11:51:41;;;;;;;;;;;14.50;80.70;;;;;;9172547;19;19922;-70
2023/04/01 11:54:57;;;;;;;;;;;14.60;80.80;;;;;;9176642;19;19915;-70
2023/04/01 11:58:17;;;;;;;;;;;14.50;80.70;;;;;;9180529;19;19927;-70
2023/04/01 12:01:28;;;;;;;;;;;14.50;80.70;;;;;;9184824;19;19938;-70
2023/04/01 12:04:39;;;;;;;;;;;14.50;80.80;;;;;;9183989;19;20378;-70
2023/04/01 12:07:59;;;;;;;;;;;14.50;80.80;;;;;;9183057;19;19915;-70
2023/04/01 12:11:09;;;;;;;;;;;14.50;80.80;;;;;;9178287;19;20331;-70
2023/04/01 12:14:18;;;;;;;;;;;14.50;80.80;;;;;;9177634;19;20297;-71
2023/04/01 12:17:29;;;;;;;;;;;14.50;80.80;;;;;;9176998;19;19919;-69
2023/04/01 12:20:41;;;;;;;;;;;14.50;80.80;;;;;;9173356;19;19927;-70
2023/04/01 12:23:52;;;;;;;;;;;14.50;80.80;;;;;;9174299;19;19923;-69
2023/04/01 12:27:06;;;;;;;;;;;14.50;80.90;;;;;;9179029;19;19918;-69
2023/04/01 12:30:37;;;;;;;;;;;14.50;80.80;;;;;;9180031;19;19925;-68
2023/04/01 12:33:52;;;;;;;;;;;14.50;80.80;;;;;;9180834;19;20442;-68
2023/04/01 12:37:01;;;;;;;;;;;14.40;80.70;;;;;;9183395;19;19930;-68
2023/04/01 12:40:22;;;;;;;;;;;14.40;80.80;;;;;;9183648;19;19923;-68
2023/04/01 12:43:43;;;;;;;;;;;14.40;80.90;;;;;;9176994;19;19951;-69
2023/04/01 12:47:02;;;;;;;;;;;14.40;80.90;;;;;;9182217;19;19915;-68
2023/04/01 12:50:24;;;;;;;;;;;14.30;80.80;;;;;;9183842;19;19943;-68
2023/04/01 12:53:39;;;;;;;;;;;14.30;80.90;;;;;;9180245;19;19915;-68
2023/04/01 12:56:49;;;;;;;;;;;14.30;80.80;;;;;;9182222;19;19934;-68
2023/04/01 13:00:01;;;;;;;;;;;14.30;80.90;;;;;;9182841;19;20277;-68
2023/04/01 13:03:14;;;;;;;;;;;14.20;80.80;;;;;;9180749;19;19922;-68
2023/04/01 13:06:32;;;;;;;;;;;14.20;80.90;;;;;;9181937;19;19930;-68
2023/04/01 13:09:42;;;;;;;;;;;14.20;80.90;;;;;;9180104;19;19926;-68
2023/04/01 13:12:57;;;;;;;;;;;14.20;80.90;;;;;;9180361;19;20249;-68
2023/04/01 13:16:05;;;;;;;;;;;14.20;81.00;;;;;;9182709;19;20326;-68
2023/04/01 13:19:15;;;;;;;;;;;14.10;80.90;;;;;;9182174;19;19923;-68
2023/04/01 13:22:22;;;;;;;;;;;14.10;80.90;;;;;;9182978;19;19935;-68
2023/04/01 13:25:35;;;;;;;;;;;14.00;80.90;;;;;;9182218;19;19924;-68
2023/04/01 13:28:41;;;;;;;;;;;14.00;80.90;;;;;;9181290;19;19942;-68
2023/04/01 13:31:52;;;;;;;;;;;14.00;81.00;;;;;;9180876;19;19929;-68
2023/04/01 13:35:04;;;;;;;;;;;14.00;81.00;;;;;;9181593;19;19915;-68
2023/04/01 13:38:18;;;;;;;;;;;13.90;80.90;;;;;;9182033;19;19930;-73
2023/04/01 13:41:30;;;;;;;;;;;13.90;81.00;;;;;;9178893;19;19944;-68
2023/04/01 13:44:39;;;;;;;;;;;13.90;81.00;;;;;;9176174;19;19911;-67
2023/04/01 13:47:56;;;;;;;;;;;13.90;81.00;;;;;;9180827;19;19918;-68
2023/04/01 13:51:17;;;;;;;;;;;13.80;80.90;;;;;;9177279;19;19922;-68
2023/04/01 13:54:27;;;;;;;;;;;13.70;80.90;;;;;;9173282;19;19914;-68
2023/04/01 13:57:45;;;;;;;;;;;13.70;81.00;;;;;;9178424;19;19911;-68
2023/04/01 14:00:56;;;;;;;;;;;13.70;81.00;;;;;;9177741;19;19919;-68
2023/04/01 14:04:23;;;;;;;;;;;13.70;81.10;;;;;;9176737;19;20261;-68
2023/04/01 14:07:42;;;;;;;;;;;13.70;81.10;;;;;;9177404;19;19931;-67
2023/04/01 14:10:52;;;;;;;;;;;13.60;81.00;;;;;;9177946;19;19930;-68
2023/04/01 14:14:05;;;;;;;;;;;13.50;80.90;;;;;;9177515;19;19926;-68
2023/04/01 14:17:25;;;;;;;;;;;13.50;81.00;;;;;;9176861;19;19915;-68
2023/04/01 14:20:40;;;;;;;;;;;13.50;81.00;;;;;;9177866;19;19923;-67
2023/04/01 14:23:53;;;;;;;;;;;13.50;81.00;;;;;;9175515;19;19918;-67
2023/04/01 14:27:11;;;;;;;;;;;13.40;81.00;;;;;;9177695;19;19917;-67
2023/04/01 14:30:26;;;;;;;;;;;13.40;81.10;;;;;;9178008;19;19925;-67
2023/04/01 14:33:35;;;;;;;;;;;13.30;81.00;;;;;;9176966;19;20524;-67
2023/04/01 14:36:48;;;;;;;;;;;13.40;81.10;;;;;;9178654;19;19926;-67
2023/04/01 14:39:57;;;;;;;;;;;13.30;81.10;;;;;;9175310;19;19978;-67
2023/04/01 14:43:16;;;;;;;;;;;13.30;81.70;;;;;;9168994;19;20288;-67
2023/04/01 14:46:36;;;;;;;;;;;13.20;81.00;;;;;;9172256;19;20270;-67
2023/04/01 14:49:44;;;;;;;;;;;13.20;81.10;;;;;;9175042;19;19937;-67
2023/04/01 14:52:57;;;;;;;;;;;13.20;81.10;;;;;;9170529;19;19930;-67
2023/04/01 14:56:05;;;;;;;;;;;13.10;81.10;;;;;;9173696;19;20249;-67
2023/04/01 14:59:11;;;;;;;;;;;13.10;81.10;;;;;;9174794;19;19915;-68
2023/04/01 15:02:30;;;;;;;;;;;13.10;81.20;;;;;;9174267;19;20371;-67
2023/04/01 15:05:37;;;;;;;;;;;13.10;81.10;;;;;;9172824;19;19919;-67
2023/04/01 15:08:49;;;;;;;;;;;13.00;81.10;;;;;;9173614;19;19911;-67
2023/04/01 15:11:58;;;;;;;;;;;13.00;81.10;;;;;;9174256;19;19911;-67
2023/04/01 15:15:13;;;;;;;;;;;12.90;81.00;;;;;;9177353;19;19911;-67
2023/04/01 15:18:21;;;;;;;;;;;12.80;81.00;;;;;;9168585;19;19930;-68
2023/04/01 15:21:35;;;;;;;;;;;12.80;81.10;;;;;;9170726;19;19923;-68
2023/04/01 15:24:45;;;;;;;;;;;12.70;81.10;;;;;;9170883;19;20249;-67
2023/04/01 15:27:53;;;;;;;;;;;12.60;81.10;;;;;;9171629;19;19915;-67
2023/04/01 15:30:58;;;;;;;;;;;12.60;81.10;;;;;;9177586;19;19926;-67
2023/04/01 15:34:22;;;;;;;;;;;12.60;81.10;;;;;;9174396;19;19987;-67
2023/04/01 15:37:33;;;;;;;;;;;12.40;81.00;;;;;;9165559;19;19923;-67
2023/04/01 15:40:43;;;;;;;;;;;12.40;81.10;;;;;;9168711;19;20007;-67
2023/04/01 15:43:48;;;;;;;;;;;12.30;81.10;;;;;;9164974;19;19914;-66
2023/04/01 15:46:54;;;;;;;;;;;12.30;81.20;;;;;;9164664;19;19925;-66
2023/04/01 15:50:03;;;;;;;;;;;12.20;81.20;;;;;;9166847;19;19914;-66
2023/04/01 15:53:20;;;;;;;;;;;12.10;81.10;;;;;;9163505;19;20312;-66
2023/04/01 15:56:41;;;;;;;;;;;12.00;81.10;;;;;;9169556;19;19926;-65
2023/04/01 15:59:55;;;;;;;;;;;11.90;81.10;;;;;;9167175;19;20356;-66
2023/04/01 16:03:11;;;;;;;;;;;11.90;81.20;;;;;;9167833;19;20414;-66
2023/04/01 16:06:30;;;;;;;;;;;11.80;81.20;;;;;;9166800;19;19919;-66
2023/04/01 16:09:55;;;;;;;;;;;11.70;81.10;;;;;;9166610;19;19930;-67
2023/04/01 16:13:13;;;;;;;;;;;11.70;81.20;;;;;;9165103;19;19915;-68
2023/04/01 16:16:24;;;;;;;;;;;11.60;81.10;;;;;;9168049;19;19926;-68
2023/04/01 16:19:44;;;;;;;;;;;11.50;81.20;;;;;;9165217;19;20014;-69
2023/04/01 16:22:51;;;;;;;;;;;11.40;81.20;;;;;;9163048;19;20315;-68
2023/04/01 16:26:01;;;;;;;;;;;11.40;81.30;;;;;;9162557;19;20337;-69
2023/04/01 16:29:11;;;;;;;;;;;11.40;81.30;;;;;;9165241;19;21668;-68
2023/04/01 16:32:23;;;;;;;;;;;11.30;81.20;;;;;;9164454;19;20030;-68
2023/04/01 16:35:32;;;;;;;;;;;11.30;81.30;;;;;;9159182;19;19919;-69
2023/04/01 16:38:40;;;;;;;;;;;11.30;81.30;;;;;;9160609;19;20250;-68
2023/04/01 16:41:48;;;;;;;;;;;11.20;81.30;;;;;;9163931;19;19922;-68
2023/04/01 16:44:58;;;;;;;;;;;11.20;81.30;;;;;;9160014;19;19950;-68
2023/04/01 16:48:08;;;;;;;;;;;11.20;81.30;;;;;;9163792;19;20329;-68
2023/04/01 16:51:16;;;;;;;;;;;11.20;81.30;;;;;;9166692;19;19927;-68
2023/04/01 16:54:27;;;;;;;;;;;11.10;81.30;;;;;;9163136;19;19949;-69
2023/04/01 16:57:37;;;;;;;;;;;11.10;81.30;;;;;;9166176;19;19918;-68
2023/04/01 17:00:46;;;;;;;;;;;11.10;81.30;;;;;;9168169;19;20169;-68
2023/04/01 17:03:54;;;;;;;;;;;11.10;81.30;;;;;;9166801;19;19914;-68
2023/04/01 17:07:00;;;;;;;;;;;11.00;81.30;;;;;;9165510;19;19938;-69
2023/04/01 17:10:20;;;;;;;;;;;10.90;81.30;;;;;;9161070;19;19929;-69
2023/04/01 17:13:38;;;;;;;;;;;10.90;81.20;;;;;;9164952;19;20456;-68
2023/04/01 17:16:54;;;;;;;;;;;10.80;81.20;;;;;;9167475;19;20978;-68
2023/04/01 17:20:04;;;;;;;;;;;10.80;81.20;;;;;;9170356;19;20436;-68
2023/04/01 17:23:14;;;;;;;;;;;10.70;81.20;;;;;;9168795;19;19918;-68
2023/04/01 17:26:22;;;;;;;;;;;10.70;81.20;;;;;;9167418;19;19926;-68
2023/04/01 17:29:32;;;;;;;;;;;10.70;81.30;;;;;;9171599;19;19918;-69
2023/04/01 17:32:43;;;;;;;;;;;10.60;81.30;;;;;;9171084;19;19915;-68
2023/04/01 17:35:55;;;;;;;;;;;10.60;81.30;;;;;;9173891;19;19919;-68
2023/04/01 17:39:03;;;;;;;;;;;10.60;81.30;;;;;;9174237;19;19927;-70
2023/04/01 17:42:12;;;;;;;;;;;10.50;81.30;;;;;;9171987;19;19930;-68
2023/04/01 17:45:23;;;;;;;;;;;10.50;81.30;;;;;;9164440;19;19930;-69
2023/04/01 17:48:39;;;;;;;;;;;10.50;81.30;;;;;;9165626;19;19961;-68
2023/04/01 17:51:45;;;;;;;;;;;10.40;81.30;;;;;;9170064;19;20345;-69
2023/04/01 17:54:55;;;;;;;;;;;10.40;81.40;;;;;;9174076;19;19923;-69
2023/04/01 17:58:03;;;;;;;;;;;10.40;81.30;;;;;;9172115;19;19923;-69
2023/04/01 18:01:17;;;;;;;;;;;10.40;81.30;;;;;;9173134;19;20529;-69
2023/04/01 18:04:45;;;;;;;;;;;10.40;81.30;;;;;;9174305;19;19926;-69
2023/04/01 18:08:05;;;;;;;;;;;10.30;81.30;;;;;;9177441;19;19918;-69
2023/04/01 18:11:14;;;;;;;;;;;10.30;81.30;;;;;;9172706;19;20309;-69
2023/04/01 18:14:30;;;;;;;;;;;10.20;81.20;;;;;;9170440;19;19925;-69
2023/04/01 18:17:43;;;;;;;;;;;10.20;81.30;;;;;;9173180;19;19952;-69
2023/04/01 18:20:52;;;;;;;;;;;10.20;81.30;;;;;;9170168;19;19937;-69
2023/04/01 18:23:59;;;;;;;;;;;10.20;81.30;;;;;;9173060;19;19922;-69
2023/04/01 18:27:17;;;;;;;;;;;10.10;81.30;;;;;;9172886;19;20467;-70
2023/04/01 18:30:22;;;;;;;;;;;10.10;81.30;;;;;;9172380;19;19918;-69
2023/04/01 18:33:33;;;;;;;;;;;10.10;81.30;;;;;;9167241;19;19922;-69
2023/04/01 18:36:43;;;;;;;;;;;10.10;81.30;;;;;;9173368;19;19933;-69
2023/04/01 18:39:50;;;;;;;;;;;10.00;81.20;;;;;;9171823;19;19922;-69
2023/04/01 18:43:01;;;;;;;;;;;10.00;81.20;;;;;;9163928;19;20345;-68